createdAt,value
2019-04-30T00:03:06.653Z,74.10
2019-04-30T00:08:34.452Z,74.75
2019-04-30T00:13:58.871Z,75.27
2019-04-30T00:19:20.864Z,75.12
2019-04-30T00:24:49.775Z,75.60
2019-04-30T00:30:11.098Z,75.43
2019-04-30T00:35:35.561Z,76.36
2019-04-30T00:41:01.889Z,76.70
2019-04-30T00:46:29.330Z,77.16
2019-04-30T00:51:56.717Z,77.36
2019-04-30T00:57:18.324Z,77.12
2019-04-30T01:02:52.003Z,77.15
2019-04-30T01:08:15.957Z,77.31
2019-04-30T01:13:45.624Z,77.27
2019-04-30T01:19:10.088Z,77.64
2019-04-30T01:24:32.916Z,77.64
2019-04-30T01:29:58.510Z,77.59
2019-04-30T01:35:23.860Z,78.28
2019-04-30T01:40:51.121Z,78.30
2019-04-30T01:46:14.145Z,78.33
2019-04-30T01:51:38.671Z,78.15
2019-04-30T01:57:16.744Z,77.93
2019-04-30T02:02:42.550Z,78.21
2019-04-30T02:08:08.474Z,78.17
2019-04-30T02:13:34.515Z,78.26
2019-04-30T02:18:59.672Z,78.37
2019-04-30T02:24:24.319Z,78.36
2019-04-30T02:29:49.494Z,78.53
2019-04-30T02:35:36.351Z,79.01
2019-04-30T02:41:01.225Z,79.54
2019-04-30T02:46:31.995Z,79.98
2019-04-30T02:51:59.412Z,80.41
2019-04-30T02:57:23.455Z,80.22
2019-04-30T03:02:47.218Z,80.64
2019-04-30T03:08:11.915Z,81.06
2019-04-30T03:13:39.987Z,80.95
2019-04-30T03:19:12.929Z,81.38
2019-04-30T03:24:42.271Z,81.28
2019-04-30T03:30:02.705Z,81.29
2019-04-30T03:35:31.750Z,81.07
2019-04-30T03:40:52.904Z,81.44
2019-04-30T03:46:19.382Z,81.37
2019-04-30T03:51:43.321Z,80.85
2019-04-30T03:57:10.419Z,80.82
2019-04-30T04:02:42.938Z,79.95
2019-04-30T04:08:19.574Z,80.00
2019-04-30T04:13:43.449Z,79.45
2019-04-30T04:19:09.642Z,78.53
2019-04-30T04:24:34.450Z,77.68
2019-04-30T04:30:01.201Z,77.04
2019-04-30T04:35:25.989Z,75.01
2019-04-30T04:40:50.790Z,72.14
2019-04-30T04:46:14.769Z,69.36
2019-04-30T04:51:42.199Z,67.26
2019-04-30T04:57:15.046Z,66.25
2019-04-30T05:02:44.974Z,64.33
2019-04-30T05:08:09.071Z,62.97
2019-04-30T05:13:35.825Z,62.23
2019-04-30T05:19:01.217Z,61.47
2019-04-30T05:24:25.468Z,60.31
2019-04-30T05:29:49.846Z,58.50
2019-04-30T05:35:14.972Z,57.20
2019-04-30T05:40:39.824Z,56.39
2019-04-30T05:46:04.917Z,54.70
2019-04-30T05:51:28.974Z,54.33
2019-04-30T05:56:52.831Z,53.78
2019-04-30T06:02:19.097Z,53.26
2019-04-30T06:07:42.597Z,51.89
2019-04-30T06:13:14.199Z,50.18
2019-04-30T06:18:39.041Z,49.51
2019-04-30T06:24:03.141Z,49.00
2019-04-30T06:29:29.006Z,47.60
2019-04-30T06:34:53.852Z,46.25
2019-04-30T06:40:19.595Z,45.93
2019-04-30T06:45:44.297Z,44.90
2019-04-30T06:51:09.979Z,43.67
2019-04-30T06:56:34.534Z,41.53
2019-04-30T07:02:00.579Z,40.43
2019-04-30T07:07:37.006Z,39.17
2019-04-30T07:13:21.066Z,38.09
2019-04-30T07:18:44.958Z,36.49
2019-04-30T07:24:09.434Z,35.69
2019-04-30T07:29:34.300Z,36.36
2019-04-30T07:34:59.762Z,35.44
2019-04-30T07:40:24.309Z,35.18
2019-04-30T07:45:49.541Z,35.25
2019-04-30T07:51:14.775Z,34.05
2019-04-30T07:56:41.727Z,33.29
2019-04-30T08:02:12.261Z,33.12
2019-04-30T08:07:31.846Z,31.14
2019-04-30T08:13:08.657Z,30.89
2019-04-30T08:18:22.429Z,31.08
2019-04-30T08:23:48.821Z,30.83
2019-04-30T08:29:13.599Z,30.45
2019-04-30T08:34:39.398Z,30.57
2019-04-30T08:40:03.639Z,30.14
2019-04-30T08:45:31.077Z,29.73
2019-04-30T08:51:00.731Z,28.99
2019-04-30T08:56:25.358Z,28.73
2019-04-30T09:01:50.098Z,27.90
2019-04-30T09:07:13.675Z,26.92
2019-04-30T09:12:39.870Z,26.92
2019-04-30T09:18:07.069Z,27.37
2019-04-30T09:23:42.928Z,26.69
2019-04-30T09:28:54.239Z,26.40
2019-04-30T09:34:21.024Z,25.48
2019-04-30T09:39:45.543Z,24.73
2019-04-30T09:45:10.445Z,24.18
2019-04-30T09:50:34.942Z,24.59
2019-04-30T09:55:59.636Z,23.93
2019-04-30T10:01:23.452Z,23.36
2019-04-30T10:06:49.952Z,22.06
2019-04-30T10:12:19.392Z,22.90
2019-04-30T10:17:43.905Z,21.32
2019-04-30T10:23:09.502Z,21.23
2019-04-30T10:28:36.313Z,21.31
2019-04-30T10:34:01.518Z,20.88
2019-04-30T10:39:29.725Z,20.61
2019-04-30T10:44:54.183Z,21.04
2019-04-30T10:50:19.394Z,19.63
2019-04-30T10:55:43.189Z,19.85
2019-04-30T11:01:09.592Z,19.52
2019-04-30T11:06:34.339Z,19.31
2019-04-30T11:11:59.423Z,19.70
2019-04-30T11:17:24.281Z,18.23
2019-04-30T11:22:48.207Z,17.97
2019-04-30T11:28:12.845Z,17.63
2019-04-30T11:33:37.975Z,18.62
2019-04-30T11:39:02.535Z,18.59
2019-04-30T11:44:35.999Z,18.84
2019-04-30T11:49:55.253Z,18.46
2019-04-30T11:55:20.307Z,18.27
2019-04-30T12:00:46.967Z,19.34
2019-04-30T12:06:11.515Z,19.46
2019-04-30T12:11:36.815Z,19.02
2019-04-30T12:17:01.096Z,18.68
2019-04-30T12:22:25.825Z,17.72
2019-04-30T12:27:49.668Z,18.98
2019-04-30T12:33:14.446Z,19.20
2019-04-30T12:38:38.301Z,18.60
2019-04-30T12:44:02.980Z,18.15
2019-04-30T12:49:29.331Z,18.60
2019-04-30T12:54:59.871Z,18.37
2019-04-30T13:00:39.122Z,17.65
2019-04-30T13:06:04.069Z,18.94
2019-04-30T13:11:30.796Z,20.54
2019-04-30T13:16:54.426Z,18.58
2019-04-30T13:22:19.013Z,16.96
2019-04-30T13:27:47.435Z,16.93
2019-04-30T13:33:20.253Z,17.25
2019-04-30T13:38:52.546Z,17.16
2019-04-30T13:44:22.126Z,17.59
2019-04-30T13:49:46.434Z,16.52
2019-04-30T13:55:11.083Z,17.60
2019-04-30T14:00:35.557Z,18.22
2019-04-30T14:06:00.070Z,17.56
2019-04-30T14:11:25.174Z,17.73
2019-04-30T14:16:49.588Z,16.98
2019-04-30T14:22:13.546Z,17.29
2019-04-30T14:27:49.030Z,17.72
2019-04-30T14:33:03.751Z,18.58
2019-04-30T14:38:27.610Z,19.27
2019-04-30T14:43:58.639Z,18.93
2019-04-30T14:50:01.600Z,18.75
2019-04-30T14:55:31.556Z,19.19
2019-04-30T15:01:05.969Z,18.78
2019-04-30T15:06:30.641Z,18.41
2019-04-30T15:11:55.301Z,18.90
2019-04-30T15:17:20.026Z,19.97
2019-04-30T15:28:32.440Z,21.40
2019-04-30T15:34:03.320Z,21.71
2019-04-30T15:39:33.534Z,21.38
2019-04-30T15:44:59.433Z,21.56
2019-04-30T15:50:23.720Z,21.65
2019-04-30T15:55:47.355Z,20.70
2019-04-30T16:01:12.864Z,22.01
2019-04-30T16:06:38.541Z,20.95
2019-04-30T16:12:11.676Z,21.04
2019-04-30T16:17:39.135Z,20.06
2019-04-30T16:23:04.055Z,18.05
2019-04-30T16:28:29.529Z,17.82
2019-04-30T16:33:54.385Z,17.43
2019-04-30T16:39:19.918Z,17.45
2019-04-30T16:44:44.585Z,17.73
2019-04-30T16:50:09.834Z,16.90
2019-04-30T16:55:34.393Z,17.27
2019-04-30T17:00:59.752Z,18.10
2019-04-30T17:06:26.475Z,18.74
2019-04-30T17:12:00.281Z,19.68
2019-04-30T17:17:25.154Z,19.50
2019-04-30T17:22:50.415Z,20.92
2019-04-30T17:28:15.363Z,21.25
2019-04-30T17:33:39.721Z,21.03
2019-04-30T17:39:05.493Z,21.97
2019-04-30T17:44:29.501Z,23.72
2019-04-30T17:49:53.480Z,24.69
2019-04-30T17:55:19.511Z,25.20
2019-04-30T18:00:48.770Z,25.53
2019-04-30T18:06:12.652Z,26.67
2019-04-30T18:11:36.722Z,27.23
2019-04-30T18:17:01.163Z,28.22
2019-04-30T18:22:44.662Z,28.38
2019-04-30T18:28:09.169Z,29.60
2019-04-30T18:33:34.344Z,30.41
2019-04-30T18:38:59.017Z,31.30
2019-04-30T18:44:23.200Z,33.03
2019-04-30T18:49:49.525Z,34.31
2019-04-30T18:55:14.140Z,35.85
2019-04-30T19:00:41.182Z,33.80
2019-04-30T19:06:22.440Z,36.04
2019-04-30T19:11:45.204Z,36.19
2019-04-30T19:17:29.535Z,36.85
2019-04-30T19:22:53.935Z,37.70
2019-04-30T19:28:18.895Z,36.73
2019-04-30T19:33:43.250Z,39.91
2019-04-30T19:39:09.843Z,41.64
2019-04-30T19:44:34.523Z,43.55
2019-04-30T19:49:59.519Z,41.80
2019-04-30T19:55:23.180Z,43.57
2019-04-30T20:00:49.874Z,45.45
2019-04-30T20:06:13.552Z,46.84
2019-04-30T20:11:39.827Z,47.56
2019-04-30T20:17:04.125Z,49.86
2019-04-30T20:22:29.224Z,53.19
2019-04-30T20:27:53.870Z,51.39
2019-04-30T20:33:19.069Z,53.65
2019-04-30T20:39:18.200Z,53.79
2019-04-30T20:44:41.904Z,54.05
2019-04-30T20:50:06.675Z,56.37
2019-04-30T20:55:31.346Z,57.43
2019-04-30T21:01:03.605Z,59.95
2019-04-30T21:06:21.419Z,59.55
2019-04-30T21:11:46.463Z,59.28
2019-04-30T21:17:11.093Z,50.59
2019-04-30T21:22:35.125Z,52.60
2019-04-30T21:27:59.942Z,54.01
2019-04-30T21:33:45.944Z,51.98
2019-04-30T21:39:10.904Z,50.37
2019-04-30T21:44:35.808Z,52.72
2019-04-30T21:49:59.618Z,51.96
2019-04-30T21:55:24.343Z,54.01
2019-04-30T22:01:10.645Z,55.42
2019-04-30T22:06:35.048Z,52.98
2019-04-30T22:11:59.886Z,54.45
2019-04-30T22:17:24.366Z,55.73
2019-04-30T22:22:49.643Z,53.53
2019-04-30T22:28:13.483Z,56.79
2019-04-30T22:33:39.183Z,55.79
2019-04-30T22:39:41.129Z,57.74
2019-04-30T22:45:09.999Z,56.00
2019-04-30T22:50:33.903Z,54.65
2019-04-30T22:55:59.474Z,51.97
2019-04-30T23:01:35.572Z,53.82
2019-04-30T23:06:59.734Z,55.17
2019-04-30T23:12:24.642Z,57.23
2019-04-30T23:17:48.954Z,51.37
2019-04-30T23:23:13.724Z,50.54
2019-04-30T23:28:37.373Z,52.01
2019-04-30T23:34:00.998Z,54.14
2019-04-30T23:39:30.371Z,52.27
2019-04-30T23:44:56.174Z,52.91
2019-04-30T23:50:20.438Z,52.37
2019-04-30T23:55:45.235Z,53.96
